Time;durP1;ratioP1;P1;durP2;ratioP2;P2;SDS_P1;SDS_P2;PMS_P1;PMS_P2;Temp;Humidity;BMP_temperature;BMP_pressure;BME280_temperature;BME280_humidity;BME280_pressure;Samples;Min_cycle;Max_cycle;Signal;HPM_P1;HPM_P2
2022/08/11 00:01:24;;;;;;;3.63;1.33;;;20.80;69.80;;;;;;4972332;28;20505;-76
2022/08/11 00:03:58;;;;;;;4.72;1.55;;;20.70;70.20;;;;;;4972695;28;20058;-78
2022/08/11 00:06:29;;;;;;;2.55;1.40;;;20.70;70.30;;;;;;4971599;28;20039;-75
2022/08/11 00:08:56;;;;;;;4.40;1.50;;;20.60;70.30;;;;;;4972082;28;20357;-75
2022/08/11 00:11:35;;;;;;;1.60;1.50;;;20.60;70.70;;;;;;4972517;28;20353;-76
2022/08/11 00:14:03;;;;;;;3.75;1.60;;;20.60;70.70;;;;;;4972925;28;20345;-76
2022/08/11 00:16:29;;;;;;;;;;;20.60;70.80;;;;;;4972933;28;20536;-75
2022/08/11 00:18:57;;;;;;;3.00;1.30;;;20.50;71.10;;;;;;4972549;28;19968;-76
2022/08/11 00:21:24;;;;;;;;;;;20.50;71.20;;;;;;4973523;28;20150;-75
2022/08/11 00:24:00;;;;;;;3.33;1.20;;;20.50;71.50;;;;;;4977171;28;19921;-77
2022/08/11 00:26:29;;;;;;;2.17;1.10;;;20.40;71.90;;;;;;4978431;28;20050;-76
2022/08/11 00:28:55;;;;;;;3.20;1.33;;;20.40;72.10;;;;;;4980272;28;20254;-77
2022/08/11 00:31:28;;;;;;;4.78;1.45;;;20.40;72.10;;;;;;4977727;28;20433;-75
2022/08/11 00:33:55;;;;;;;2.30;1.50;;;20.40;72.60;;;;;;4974145;28;20034;-76
2022/08/11 00:36:27;;;;;;;2.35;1.10;;;20.40;72.70;;;;;;4972877;28;20041;-75
2022/08/11 00:39:01;;;;;;;2.65;1.30;;;20.40;73.00;;;;;;4971923;28;20035;-75
2022/08/11 00:41:54;;;;;;;1.80;1.02;;;20.30;73.40;;;;;;4971786;28;20035;-76
2022/08/11 00:44:55;;;;;;;5.32;1.17;;;20.30;73.70;;;;;;4971709;28;20078;-76
2022/08/11 00:47:34;;;;;;;2.35;1.25;;;20.30;74.00;;;;;;4986723;28;20370;-75
2022/08/11 00:50:24;;;;;;;2.90;1.38;;;20.20;74.40;;;;;;4972272;28;20062;-74
2022/08/11 00:53:07;;;;;;;6.60;1.60;;;20.20;74.90;;;;;;4971565;28;20039;-76
2022/08/11 00:55:38;;;;;;;5.75;1.40;;;20.10;75.00;;;;;;4971937;28;20075;-77
2022/08/11 00:58:24;;;;;;;3.72;1.30;;;20.10;75.40;;;;;;4971622;28;20049;-76
2022/08/11 01:01:15;;;;;;;6.63;1.50;;;20.00;75.70;;;;;;4971465;28;20117;-76
2022/08/11 01:03:52;;;;;;;5.30;1.60;;;20.00;76.10;;;;;;4971735;28;20035;-75
2022/08/11 01:06:43;;;;;;;3.88;1.40;;;19.90;76.00;;;;;;4971459;28;20100;-74
2022/08/11 01:09:23;;;;;;;2.03;1.23;;;19.90;76.20;;;;;;4971300;28;20138;-76
2022/08/11 01:12:03;;;;;;;2.95;1.35;;;19.80;76.50;;;;;;4971379;28;20115;-75
2022/08/11 01:15:04;;;;;;;2.05;1.23;;;19.80;77.00;;;;;;4971330;28;20432;-75
2022/08/11 01:17:38;;;;;;;4.32;1.55;;;19.70;77.70;;;;;;4970585;28;20035;-76
2022/08/11 01:20:09;;;;;;;4.20;1.33;;;19.70;78.10;;;;;;4971784;28;20125;-75
2022/08/11 01:22:50;;;;;;;6.38;1.20;;;19.60;78.80;;;;;;4971446;28;20090;-75
2022/08/11 01:25:53;;;;;;;4.82;1.67;;;19.70;78.90;;;;;;4971748;28;20476;-76
2022/08/11 01:28:42;;;;;;;5.20;1.70;;;19.70;78.70;;;;;;4986536;28;20377;-76
2022/08/11 01:31:23;;;;;;;3.67;1.35;;;19.60;79.80;;;;;;4986534;28;20031;-76
2022/08/11 01:34:21;;;;;;;3.08;1.58;;;19.60;80.50;;;;;;4972194;28;20110;-76
2022/08/11 01:37:06;;;;;;;3.72;1.98;;;19.60;80.90;;;;;;4936655;29;20258;-76
2022/08/11 01:39:53;;;;;;;2.88;1.58;;;19.50;81.10;;;;;;4970867;28;20038;-76
2022/08/11 01:45:51;;;;;;;5.03;1.90;;;19.40;82.40;;;;;;4955963;28;20039;-74
2022/08/11 01:48:43;;;;;;;1.60;1.40;;;19.40;82.40;;;;;;4955783;28;20043;-75
2022/08/11 01:51:45;;;;;;;4.95;1.98;;;19.40;82.80;;;;;;4955838;28;20182;-76
2022/08/11 01:54:23;;;;;;;3.15;1.65;;;19.40;82.90;;;;;;4955624;28;20122;-75
2022/08/11 01:57:13;;;;;;;7.40;2.00;;;19.30;83.70;;;;;;4955575;28;20465;-74
2022/08/11 01:59:48;;;;;;;4.53;2.03;;;19.30;83.60;;;;;;4955551;28;20100;-75
2022/08/11 02:05:15;;;;;;;3.25;1.88;;;19.20;84.30;;;;;;4955436;28;20033;-77
2022/08/11 02:08:00;;;;;;;3.38;1.90;;;19.20;85.10;;;;;;4955779;28;20043;-75
2022/08/11 02:11:29;;;;;;;5.15;2.00;;;19.10;85.50;;;;;;4970402;28;20024;-75
2022/08/11 02:14:06;;;;;;;5.93;1.92;;;19.10;85.50;;;;;;4934077;29;20039;-75
2022/08/11 02:16:47;;;;;;;4.30;1.52;;;19.10;85.40;;;;;;4934065;29;20071;-76
2022/08/11 02:24:56;;;;;;;2.38;1.75;;;19.10;86.70;;;;;;4955104;28;20276;-75
2022/08/11 02:27:31;;;;;;;3.38;1.75;;;19.00;86.70;;;;;;4954965;28;20119;-75
2022/08/11 02:30:06;;;;;;;6.00;1.80;;;19.00;86.90;;;;;;4954794;28;20209;-76
2022/08/11 02:35:59;;;;;;;3.75;1.88;;;19.10;87.10;;;;;;4955165;28;20101;-75
2022/08/11 02:38:42;;;;;;;4.25;1.80;;;19.00;87.20;;;;;;4955195;28;20156;-76
2022/08/11 02:44:48;;;;;;;2.97;1.95;;;19.00;88.10;;;;;;4954990;28;20400;-76
2022/08/11 02:47:38;;;;;;;2.97;1.57;;;18.90;87.50;;;;;;4954022;28;20027;-76
2022/08/11 02:50:35;;;;;;;1.48;1.30;;;18.90;87.70;;;;;;4954993;28;20253;-75
2022/08/11 02:53:18;;;;;;;3.60;1.52;;;18.90;87.80;;;;;;4919708;29;20142;-75
2022/08/11 02:56:01;;;;;;;4.78;1.35;;;18.80;87.70;;;;;;4955111;28;20038;-76
2022/08/11 02:58:38;;;;;;;5.13;1.83;;;18.80;87.80;;;;;;4954482;28;20061;-76
2022/08/11 03:01:27;;;;;;;3.05;1.70;;;18.80;88.00;;;;;;4954501;28;20051;-76
2022/08/11 03:04:00;;;;;;;2.33;1.70;;;18.80;88.20;;;;;;4954646;28;20035;-77
2022/08/11 03:06:49;;;;;;;4.10;1.70;;;18.80;88.10;;;;;;4954144;28;20031;-76
2022/08/11 03:09:46;;;;;;;2.55;1.55;;;18.70;88.50;;;;;;4954478;28;20131;-76
2022/08/11 03:18:38;;;;;;;1.85;1.30;;;18.60;89.00;;;;;;4961722;28;20039;-75
2022/08/11 03:21:20;;;;;;;2.33;1.60;;;18.70;89.20;;;;;;4954128;28;20035;-78
2022/08/11 03:23:55;;;;;;;6.63;2.95;;;18.60;89.20;;;;;;4956280;28;20081;-75
2022/08/11 03:26:29;;;;;;;3.17;1.90;;;18.60;89.00;;;;;;4962947;28;20078;-76
2022/08/11 03:29:19;;;;;;;2.95;1.60;;;18.50;89.10;;;;;;4966791;28;20051;-77
2022/08/11 03:32:08;;;;;;;4.60;2.05;;;18.60;88.90;;;;;;4954271;28;20061;-76
2022/08/11 03:34:38;;;;;;;3.22;1.88;;;18.50;88.50;;;;;;4954054;28;20106;-76
2022/08/11 03:37:50;;;;;;;3.28;1.35;;;18.40;88.60;;;;;;4954143;28;20058;-75
2022/08/11 03:43:41;;;;;;;4.82;1.60;;;18.40;88.50;;;;;;4954064;28;20370;-75
2022/08/11 03:46:19;;;;;;;11.55;2.50;;;18.30;88.90;;;;;;4953803;28;20031;-75
2022/08/11 03:49:00;;;;;;;9.85;2.33;;;18.30;89.20;;;;;;4953757;28;20106;-75
2022/08/11 03:51:53;;;;;;;2.47;1.85;;;18.40;88.90;;;;;;4953429;28;20035;-75
2022/08/11 03:54:36;;;;;;;7.78;2.33;;;18.40;89.00;;;;;;4953975;28;20039;-76
2022/08/11 03:57:11;;;;;;;4.28;2.05;;;18.30;89.30;;;;;;4953640;28;20055;-75
2022/08/11 04:00:14;;;;;;;3.83;2.03;;;18.40;89.00;;;;;;4953373;28;20043;-75
2022/08/11 04:02:59;;;;;;;26.23;6.63;;;18.30;88.90;;;;;;4953562;28;20492;-76
2022/08/11 04:05:59;;;;;;;4.88;2.08;;;18.30;89.20;;;;;;4949297;28;20647;-75
2022/08/11 04:08:50;;;;;;;11.00;2.65;;;18.30;89.30;;;;;;4953732;28;20051;-74
2022/08/11 04:11:46;;;;;;;3.10;1.73;;;18.20;89.40;;;;;;4953258;28;20446;-75
2022/08/11 04:17:39;;;;;;;2.97;1.92;;;18.10;90.00;;;;;;4953231;28;20342;-76
2022/08/11 04:20:29;;;;;;;5.78;2.25;;;18.10;90.20;;;;;;4954002;28;20059;-75
2022/08/11 04:23:21;;;;;;;6.68;2.40;;;18.10;90.30;;;;;;4968245;28;20491;-76
2022/08/11 04:26:30;;;;;;;6.40;2.70;;;18.00;90.30;;;;;;4953179;29;20312;-75
2022/08/11 04:29:14;;;;;;;3.28;2.08;;;18.10;90.30;;;;;;4953341;28;20130;-76
2022/08/11 04:31:59;;;;;;;11.25;2.70;;;18.10;90.20;;;;;;4953731;29;20411;-75
2022/08/11 04:34:50;;;;;;;14.25;2.88;;;18.00;90.50;;;;;;4952472;28;20035;-75
2022/08/11 04:37:37;;;;;;;17.30;2.60;;;18.00;90.60;;;;;;4952733;28;20114;-76
2022/08/11 04:40:27;;;;;;;32.22;4.70;;;18.00;90.70;;;;;;4952743;28;20035;-75
2022/08/11 04:43:20;;;;;;;20.88;3.00;;;18.00;90.60;;;;;;4952796;28;20403;-76
2022/08/11 04:46:08;;;;;;;11.50;3.58;;;18.10;90.80;;;;;;4952593;28;20031;-76
2022/08/11 05:01:40;;;;;;;6.75;2.00;;;18.10;91.10;;;;;;4967388;28;20520;-77
2022/08/11 05:07:28;;;;;;;12.90;3.00;;;18.10;91.20;;;;;;4952260;28;20054;-77
2022/08/11 05:10:15;;;;;;;18.92;2.65;;;18.10;91.30;;;;;;4952244;28;20299;-77
2022/08/11 05:12:46;;;;;;;8.45;2.15;;;18.10;91.30;;;;;;4952650;28;20035;-77
2022/08/11 05:35:40;;;;;;;6.55;2.38;;;18.40;91.90;;;;;;4952223;28;20046;-76
2022/08/11 05:58:03;;;;;;;14.80;3.33;;;18.80;91.40;;;;;;4951797;28;20042;-76
2022/08/11 06:00:30;;;;;;;8.43;2.65;;;18.80;91.30;;;;;;4951876;28;20045;-76
2022/08/11 06:03:02;;;;;;;17.30;3.17;;;18.90;90.80;;;;;;4951867;28;20084;-76
2022/08/11 06:05:36;;;;;;;9.05;3.03;;;18.90;91.10;;;;;;4951745;28;20186;-74
2022/08/11 06:08:04;;;;;;;7.75;2.63;;;19.00;91.20;;;;;;4952201;28;20579;-76
2022/08/11 06:10:42;;;;;;;9.90;3.10;;;19.00;91.30;;;;;;4951336;29;20593;-76
2022/08/11 06:13:13;;;;;;;15.80;2.85;;;19.00;91.30;;;;;;4951848;28;20162;-76
2022/08/11 06:15:47;;;;;;;14.70;4.78;;;19.20;91.30;;;;;;4951612;28;20110;-75
2022/08/11 06:18:14;;;;;;;11.60;3.08;;;19.20;91.60;;;;;;4951712;28;20457;-76
2022/08/11 06:20:47;;;;;;;9.05;2.65;;;19.30;91.10;;;;;;4952546;28;20166;-79
2022/08/11 06:23:16;;;;;;;10.13;2.67;;;19.40;91.40;;;;;;4973192;28;20023;-78
2022/08/11 06:25:43;;;;;;;7.25;2.90;;;19.40;91.20;;;;;;4956820;28;20217;-78
2022/08/11 06:28:09;;;;;;;11.80;3.70;;;19.50;91.20;;;;;;4955920;28;20031;-80
2022/08/11 06:30:43;;;;;;;8.18;2.90;;;19.60;91.20;;;;;;4955780;28;20046;-80
2022/08/11 06:33:10;;;;;;;6.15;2.40;;;19.60;90.90;;;;;;4956039;28;20126;-79
2022/08/11 06:36:08;;;;;;;7.70;2.47;;;19.70;90.80;;;;;;4970987;28;20028;-82
2022/08/11 06:38:36;;;;;;;;;;;19.80;90.80;;;;;;4934717;29;20519;-81
2022/08/11 06:41:35;;;;;;;6.95;3.05;;;19.90;90.90;;;;;;4937431;29;19917;-79
2022/08/11 06:44:28;;;;;;;7.22;2.50;;;19.90;90.60;;;;;;4956237;28;20044;-80
2022/08/11 06:46:59;;;;;;;10.18;2.83;;;20.00;90.60;;;;;;4973349;28;20060;-85
2022/08/11 06:52:32;;;;;;;4.43;1.98;;;20.10;90.70;;;;;;4957941;28;20042;-80
2022/08/11 07:00:26;;;;;;;9.25;2.65;;;20.20;90.50;;;;;;4955365;28;20040;-81
2022/08/11 07:01:13;;;;;;;6.55;2.40;;;20.40;90.30;;;;;;4957423;28;20046;-88
2022/08/11 07:03:57;;;;;;;8.48;2.35;;;20.40;90.40;;;;;;4957119;28;20046;-89
2022/08/11 07:06:42;;;;;;;12.68;2.90;;;20.50;90.40;;;;;;4957537;28;20035;-88
2022/08/11 07:15:43;;;;;;;11.15;2.42;;;20.90;90.00;;;;;;4955125;28;20047;-79
2022/08/11 07:29:42;;;;;;;7.20;2.58;;;21.60;88.20;;;;;;4955107;28;20053;-82
2022/08/11 07:32:25;;;;;;;4.43;2.30;;;21.70;88.40;;;;;;4954288;28;20358;-80
2022/08/11 07:35:12;;;;;;;8.95;3.05;;;21.70;87.30;;;;;;4954788;28;20035;-79
2022/08/11 07:37:46;;;;;;;8.88;3.58;;;21.80;87.30;;;;;;4955908;28;20132;-89
2022/08/11 07:40:13;;;;;;;12.63;2.72;;;22.00;86.90;;;;;;4954145;28;20395;-74
2022/08/11 07:42:45;;;;;;;8.88;2.50;;;22.10;86.20;;;;;;4953946;28;20484;-74
2022/08/11 07:53:30;;;;;;;18.00;2.78;;;22.50;85.20;;;;;;4992843;28;20037;-75
2022/08/11 07:55:58;;;;;;;9.35;2.75;;;22.60;84.10;;;;;;4991870;28;20046;-76
2022/08/11 08:17:56;;;;;;;12.07;2.92;;;23.80;81.60;;;;;;4992561;28;20092;-76
2022/08/11 08:20:27;;;;;;;6.82;2.42;;;24.10;81.30;;;;;;4992313;28;20502;-77
2022/08/11 08:22:55;;;;;;;4.47;2.20;;;24.50;78.90;;;;;;4992772;28;20405;-74
2022/08/11 08:25:27;;;;;;;5.43;2.15;;;24.80;79.10;;;;;;4992349;28;20038;-74
2022/08/11 08:27:58;;;;;;;6.38;2.20;;;25.20;80.90;;;;;;4991873;28;20121;-75
2022/08/11 08:30:49;;;;;;;5.25;1.83;;;26.30;79.20;;;;;;4991717;28;20030;-77
2022/08/11 08:33:24;;;;;;;7.10;2.47;;;27.70;79.20;;;;;;4992698;28;20035;-80
2022/08/11 08:36:15;;;;;;;4.55;2.33;;;29.30;74.10;;;;;;4992836;28;20346;-78
2022/08/11 08:38:49;;;;;;;9.85;2.55;;;30.50;67.80;;;;;;4992466;28;20038;-76
2022/08/11 08:41:28;;;;;;;8.95;2.05;;;31.20;61.50;;;;;;4992613;28;20018;-77
2022/08/11 08:43:59;;;;;;;6.28;2.03;;;32.20;61.60;;;;;;4991763;28;20164;-76
2022/08/11 08:46:31;;;;;;;4.93;1.88;;;32.70;57.80;;;;;;4992191;28;20031;-78
2022/08/11 08:49:00;;;;;;;5.20;2.10;;;33.10;56.50;;;;;;4991841;28;20042;-77
2022/08/11 08:51:33;;;;;;;7.85;2.33;;;33.70;55.70;;;;;;4992834;28;20034;-77
2022/08/11 08:54:15;;;;;;;7.70;2.45;;;34.30;52.60;;;;;;4992108;28;20644;-79
2022/08/11 08:56:43;;;;;;;13.38;2.90;;;35.10;51.30;;;;;;4994341;28;20050;-76
2022/08/11 08:59:12;;;;;;;7.95;2.25;;;35.70;51.10;;;;;;4994293;28;20372;-82
2022/08/11 09:02:01;;;;;;;11.23;2.70;;;36.10;50.30;;;;;;4996510;28;20026;-77
2022/08/11 09:04:31;;;;;;;7.13;2.00;;;36.30;47.90;;;;;;4993793;28;20431;-79
2022/08/11 09:07:08;;;;;;;9.07;2.40;;;36.40;46.20;;;;;;4991760;28;20093;-80
2022/08/11 09:09:34;;;;;;;8.15;2.38;;;36.90;47.10;;;;;;4993472;28;20030;-78
2022/08/11 09:12:03;;;;;;;7.80;1.95;;;36.70;45.00;;;;;;4992930;28;20035;-80
2022/08/11 09:17:22;;;;;;;5.25;2.72;;;37.50;44.60;;;;;;4994051;28;20128;-81
2022/08/11 09:19:59;;;;;;;3.05;1.48;;;38.00;43.40;;;;;;4993466;28;20195;-80
2022/08/11 09:28:01;;;;;;;4.43;2.72;;;38.90;39.30;;;;;;4992793;28;20057;-81
2022/08/11 09:30:27;;;;;;;;;;;39.00;39.20;;;;;;4991783;28;20114;-81
2022/08/11 09:32:56;;;;;;;2.33;1.57;;;39.60;38.60;;;;;;4992945;28;20328;-84
2022/08/11 09:35:35;;;;;;;4.38;1.42;;;40.10;37.10;;;;;;4992697;28;20034;-81
2022/08/11 09:40:49;;;;;;;4.97;1.50;;;39.40;32.50;;;;;;4995794;28;20092;-81
2022/08/11 09:46:09;;;;;;;8.60;1.80;;;39.60;34.20;;;;;;4994451;28;20161;-84
2022/08/11 09:48:38;;;;;;;5.03;2.03;;;39.20;33.90;;;;;;4993956;28;20452;-86
2022/08/11 09:51:09;;;;;;;4.60;1.83;;;39.50;33.80;;;;;;4993190;28;20100;-78
2022/08/11 09:53:38;;;;;;;9.95;2.10;;;39.60;33.20;;;;;;4990882;28;20030;-79
2022/08/11 09:59:01;;;;;;;6.47;2.08;;;39.90;33.80;;;;;;4995620;28;20037;-83
2022/08/11 10:01:33;;;;;;;3.08;1.63;;;39.60;33.30;;;;;;4995304;28;20030;-83
2022/08/11 10:04:14;;;;;;;4.05;1.65;;;40.10;32.60;;;;;;4996428;28;20061;-85
2022/08/11 10:09:48;;;;;;;3.28;1.92;;;40.10;32.10;;;;;;4995960;28;20129;-81
2022/08/11 10:12:33;;;;;;;11.07;4.40;;;39.20;33.60;;;;;;4996401;28;20041;-86
2022/08/11 10:20:53;;;;;;;7.70;1.80;;;38.30;32.90;;;;;;4995806;28;20097;-84
2022/08/11 10:28:52;;;;;;;2.45;1.65;;;38.20;32.90;;;;;;4956911;28;20041;-84
2022/08/11 10:34:07;;;;;;;1.73;1.40;;;36.50;32.80;;;;;;4958410;28;20042;-84
2022/08/11 10:36:49;;;;;;;2.05;1.77;;;36.10;33.80;;;;;;4972524;28;20089;-86
2022/08/11 10:39:19;;;;;;;4.93;2.17;;;35.80;34.80;;;;;;4974228;28;20039;-91
2022/08/11 10:44:40;;;;;;;5.13;1.47;;;34.60;35.60;;;;;;4957607;28;20034;-78
2022/08/11 11:00:59;;;;;;;10.50;1.85;;;33.30;37.90;;;;;;4957134;28;20067;-84
2022/08/11 11:03:28;;;;;;;1.98;1.58;;;33.60;37.10;;;;;;4972374;28;20122;-88
2022/08/11 11:06:02;;;;;;;3.85;1.83;;;33.40;37.50;;;;;;4972215;28;20035;-79
2022/08/11 11:11:18;;;;;;;7.63;2.55;;;33.50;37.20;;;;;;4957153;28;20050;-82
2022/08/11 11:19:18;;;;;;;6.45;1.73;;;33.10;38.10;;;;;;4957178;28;20034;-84
2022/08/11 11:21:47;;;;;;;3.60;1.50;;;32.90;38.10;;;;;;4956558;28;20530;-84
2022/08/11 11:24:50;;;;;;;4.32;1.80;;;32.90;38.50;;;;;;4971767;28;20162;-92
2022/08/11 11:27:31;;;;;;;4.40;1.73;;;33.00;38.40;;;;;;4971001;28;20283;-86
2022/08/11 11:30:09;;;;;;;4.07;2.03;;;32.90;38.30;;;;;;4956675;28;20131;-82
2022/08/11 11:32:34;;;;;;;4.38;2.10;;;32.60;38.60;;;;;;4971686;28;20027;-79
2022/08/11 11:35:09;;;;;;;7.05;2.10;;;32.60;37.90;;;;;;4956888;28;20086;-84
2022/08/11 11:37:36;;;;;;;3.67;1.88;;;32.30;39.40;;;;;;4971589;28;20044;-82
2022/08/11 11:40:11;;;;;;;2.72;1.90;;;32.30;39.00;;;;;;4955858;28;20031;-80
2022/08/11 11:42:43;;;;;;;3.20;1.65;;;32.30;38.70;;;;;;4955541;28;20102;-84
2022/08/11 11:45:10;;;;;;;3.50;1.50;;;32.40;38.40;;;;;;4970315;28;20038;-77
2022/08/11 11:47:40;;;;;;;4.10;2.40;;;32.40;38.80;;;;;;4955195;28;20028;-81
2022/08/11 11:50:08;;;;;;;5.47;1.65;;;32.50;38.10;;;;;;4956008;28;20110;-82
2022/08/11 11:52:36;;;;;;;5.25;1.73;;;32.30;38.10;;;;;;4955465;28;20035;-79
2022/08/11 11:55:04;;;;;;;4.22;1.90;;;32.20;37.90;;;;;;4970763;28;20039;-85
2022/08/11 12:03:06;;;;;;;6.13;3.55;;;32.00;38.40;;;;;;4955321;28;20058;-82
2022/08/11 12:05:37;;;;;;;10.35;6.28;;;31.90;40.20;;;;;;4970593;28;20031;-84
2022/08/11 12:08:13;;;;;;;5.80;3.17;;;31.70;37.70;;;;;;4958474;28;20039;-83
2022/08/11 12:14:06;;;;;;;3.20;1.70;;;31.60;37.50;;;;;;4934404;29;20032;-80
2022/08/11 12:16:35;;;;;;;2.15;1.50;;;31.40;37.60;;;;;;4933849;29;20039;-81
2022/08/11 12:19:02;;;;;;;7.93;1.70;;;31.60;37.00;;;;;;4942833;29;20035;-84
2022/08/11 12:21:28;;;;;;;3.15;1.60;;;31.40;38.10;;;;;;4969426;28;20508;-81
2022/08/11 12:29:26;;;;;;;2.85;1.58;;;31.50;37.00;;;;;;4954364;28;20023;-79
2022/08/11 12:31:53;;;;;;;3.58;1.58;;;31.50;37.80;;;;;;4956162;28;20051;-83
2022/08/11 12:34:20;;;;;;;1.98;1.40;;;31.40;38.10;;;;;;4954724;28;20050;-83
2022/08/11 12:36:58;;;;;;;2.10;1.42;;;31.40;38.10;;;;;;4954812;28;20058;-86
2022/08/11 12:45:27;;;;;;;3.60;1.27;;;31.40;37.60;;;;;;4952931;28;20031;-79
2022/08/11 12:53:32;;;;;;;2.80;1.50;;;31.30;39.40;;;;;;4954490;28;20109;-80
2022/08/11 12:58:52;;;;;;;6.47;2.05;;;31.30;38.60;;;;;;4954112;28;20365;-78
2022/08/11 13:06:51;;;;;;;7.07;2.03;;;31.30;38.40;;;;;;4953968;28;20051;-80
2022/08/11 13:09:19;;;;;;;5.43;2.22;;;31.30;38.50;;;;;;4953646;28;20039;-80
2022/08/11 13:14:31;;;;;;;7.80;3.92;;;31.30;38.80;;;;;;4954227;28;20525;-88
2022/08/11 13:19:45;;;;;;;4.60;1.80;;;31.10;37.90;;;;;;4954182;29;19922;-83
2022/08/11 13:22:12;;;;;;;4.97;1.88;;;31.00;38.00;;;;;;4954252;28;20305;-83
2022/08/11 13:24:39;;;;;;;5.55;1.38;;;31.00;38.80;;;;;;4953881;28;20035;-81
2022/08/11 13:27:05;;;;;;;3.80;1.63;;;31.00;38.50;;;;;;4954430;28;20513;-79
2022/08/11 13:29:34;;;;;;;5.22;1.92;;;31.10;38.00;;;;;;4954529;28;20028;-83
2022/08/11 13:32:01;;;;;;;3.67;1.60;;;31.00;37.70;;;;;;4957367;28;20031;-80
2022/08/11 13:34:33;;;;;;;3.88;1.55;;;31.00;37.30;;;;;;4972584;28;20118;-79
2022/08/11 13:37:01;;;;;;;2.92;1.42;;;30.90;37.60;;;;;;4958017;28;20046;-91
2022/08/11 13:39:29;;;;;;;4.13;1.55;;;30.90;37.90;;;;;;4957895;28;20047;-88
2022/08/11 13:41:58;;;;;;;2.20;1.50;;;30.80;37.80;;;;;;4958075;28;20065;-84
2022/08/11 13:44:26;;;;;;;5.05;1.80;;;30.70;38.00;;;;;;4959037;28;20030;-87
2022/08/11 13:47:02;;;;;;;2.28;1.55;;;30.70;38.00;;;;;;4958818;28;20529;-83
2022/08/11 13:49:30;;;;;;;7.63;1.70;;;30.60;38.10;;;;;;4957820;28;20051;-82
2022/08/11 13:51:57;;;;;;;3.13;1.55;;;30.40;38.60;;;;;;4972780;28;20095;-85
2022/08/11 13:54:27;;;;;;;4.63;1.60;;;30.40;38.60;;;;;;4958507;28;20054;-83
2022/08/11 13:57:00;;;;;;;5.28;2.33;;;30.40;38.20;;;;;;4957631;28;20414;-82
2022/08/11 13:59:27;;;;;;;2.95;1.80;;;30.40;38.90;;;;;;4957432;28;20050;-83
2022/08/11 14:01:59;;;;;;;2.85;1.55;;;30.40;39.20;;;;;;4957914;28;20442;-85
2022/08/11 14:04:32;;;;;;;13.30;6.40;;;30.40;40.30;;;;;;4973686;28;20039;-87
2022/08/11 14:07:01;;;;;;;2.90;1.92;;;30.40;38.60;;;;;;4991651;28;20034;-83
2022/08/11 14:09:33;;;;;;;4.05;1.60;;;30.30;38.80;;;;;;4996832;28;20034;-82
2022/08/11 14:14:51;;;;;;;6.85;1.52;;;30.30;39.80;;;;;;4998133;28;20044;-82
2022/08/11 14:17:19;;;;;;;19.27;9.98;;;30.20;38.80;;;;;;4996902;28;20472;-85
2022/08/11 14:19:49;;;;;;;6.97;4.28;;;30.10;41.80;;;;;;4997739;28;20118;-81
2022/08/11 14:22:17;;;;;;;8.25;2.53;;;30.10;41.20;;;;;;4995760;28;20472;-85
2022/08/11 14:24:48;;;;;;;3.00;1.75;;;30.10;41.00;;;;;;4996507;28;20353;-86
2022/08/11 14:27:15;;;;;;;3.85;1.73;;;30.10;42.00;;;;;;4997684;28;20042;-86
2022/08/11 14:29:42;;;;;;;5.05;1.70;;;30.10;41.50;;;;;;4996950;28;20037;-88
2022/08/11 14:32:13;;;;;;;4.57;1.88;;;30.10;42.10;;;;;;4995764;28;20113;-82
2022/08/11 14:34:41;;;;;;;4.72;1.83;;;30.10;40.40;;;;;;4994833;28;20420;-78
2022/08/11 14:37:18;;;;;;;6.38;1.60;;;30.10;40.40;;;;;;4995426;28;20073;-80
2022/08/11 14:39:53;;;;;;;3.93;1.93;;;30.10;41.80;;;;;;4994151;28;20472;-79
2022/08/11 14:48:02;;;;;;;;;;;30.10;42.20;;;;;;4995548;28;20482;-81
2022/08/11 14:50:33;;;;;;;6.40;2.63;;;30.10;40.50;;;;;;4996057;28;19914;-86
2022/08/11 14:53:05;;;;;;;2.60;1.75;;;30.00;44.70;;;;;;4998693;28;20109;-85
2022/08/11 14:58:29;;;;;;;2.70;2.00;;;29.80;45.10;;;;;;4996240;28;20065;-80
2022/08/11 15:00:57;;;;;;;6.13;1.80;;;29.80;41.80;;;;;;4995653;28;20030;-80
2022/08/11 15:03:24;;;;;;;9.63;2.30;;;29.70;44.20;;;;;;4995877;28;20046;-83
2022/08/11 15:05:52;;;;;;;12.05;3.20;;;29.60;44.50;;;;;;4996495;28;20034;-83
2022/08/11 15:08:19;;;;;;;2.70;2.10;;;29.50;43.80;;;;;;4996539;28;20413;-84
2022/08/11 15:10:47;;;;;;;3.47;2.03;;;29.40;43.40;;;;;;4995723;28;20112;-83
2022/08/11 15:13:17;;;;;;;3.15;2.17;;;29.40;44.00;;;;;;4995508;28;20034;-78
2022/08/11 15:18:30;;;;;;;8.13;2.10;;;29.30;45.00;;;;;;4994209;28;20045;-79
2022/08/11 15:37:37;;;;;;;11.73;2.45;;;29.10;44.90;;;;;;4997281;28;20045;-78
2022/08/11 15:46:09;;;;;;;12.02;2.25;;;28.90;45.20;;;;;;4993578;28;20045;-78
2022/08/11 15:48:47;;;;;;;5.30;1.70;;;28.80;44.90;;;;;;4996277;28;20031;-80
2022/08/11 15:51:23;;;;;;;3.88;2.15;;;28.70;44.00;;;;;;4994783;28;20038;-84
2022/08/11 15:53:57;;;;;;;8.88;2.00;;;28.80;43.60;;;;;;4996684;28;20035;-82
2022/08/11 15:56:26;;;;;;;11.65;1.98;;;28.70;46.20;;;;;;5000315;28;20322;-83
2022/08/11 16:04:30;;;;;;;8.43;2.30;;;28.50;46.00;;;;;;4993762;28;20099;-82
2022/08/11 16:07:12;;;;;;;5.75;2.00;;;28.60;45.40;;;;;;4992707;28;20057;-85
2022/08/11 16:09:40;;;;;;;17.17;2.65;;;28.60;43.20;;;;;;4993732;28;20034;-83
2022/08/11 16:12:10;;;;;;;10.80;2.45;;;28.70;44.90;;;;;;4992244;28;20145;-81
2022/08/11 16:17:29;;;;;;;10.23;2.40;;;28.60;44.60;;;;;;4993407;28;20372;-82
2022/08/11 16:19:57;;;;;;;4.55;1.90;;;28.40;46.10;;;;;;4992724;28;20116;-81
2022/08/11 16:22:33;;;;;;;3.97;1.50;;;28.50;42.70;;;;;;4992560;28;20045;-76
2022/08/11 16:25:01;;;;;;;9.48;2.30;;;28.50;42.60;;;;;;4992476;28;20030;-79
2022/08/11 16:27:28;;;;;;;;;;;28.60;43.70;;;;;;4993178;28;20038;-80
2022/08/11 16:29:55;;;;;;;8.63;2.08;;;28.60;40.80;;;;;;4992811;28;20185;-78
2022/08/11 16:32:24;;;;;;;2.90;1.65;;;28.70;40.00;;;;;;4991552;28;20026;-79
2022/08/11 16:40:33;;;;;;;4.82;1.98;;;28.80;40.40;;;;;;4992175;28;20492;-80
2022/08/11 16:48:36;;;;;;;4.55;1.63;;;28.90;41.10;;;;;;4992421;28;20476;-79
2022/08/11 16:51:01;;;;;;;7.70;1.92;;;28.90;41.10;;;;;;4992872;28;20054;-79
2022/08/11 16:53:30;;;;;;;3.08;1.60;;;28.90;40.70;;;;;;4992409;28;20440;-79
2022/08/11 16:56:02;;;;;;;4.45;1.90;;;28.90;40.90;;;;;;4991252;28;20364;-80
2022/08/11 17:01:18;;;;;;;3.13;1.80;;;28.90;40.80;;;;;;4991016;28;20037;-81
2022/08/11 17:16:05;;;;;;;3.80;1.80;;;29.00;41.50;;;;;;4992000;28;20388;-80
2022/08/11 17:17:58;;;;;;;2.83;1.67;;;28.90;41.50;;;;;;4991923;28;20026;-80
2022/08/11 17:20:26;;;;;;;5.47;3.15;;;28.90;41.40;;;;;;4991068;28;20027;-80
2022/08/11 17:25:38;;;;;;;8.77;1.67;;;28.90;41.70;;;;;;4991498;28;20475;-79
2022/08/11 17:28:06;;;;;;;4.25;1.83;;;29.00;41.80;;;;;;4990646;28;20045;-79
2022/08/11 17:36:02;;;;;;;10.18;2.03;;;28.90;42.10;;;;;;4991753;28;20065;-81
2022/08/11 17:38:29;;;;;;;6.82;2.80;;;28.90;42.20;;;;;;4990662;28;20449;-80
2022/08/11 17:49:19;;;;;;;3.22;1.92;;;28.80;42.00;;;;;;4991817;28;20048;-79
2022/08/11 18:00:06;;;;;;;7.10;1.92;;;28.70;42.20;;;;;;4991628;28;19921;-80
2022/08/11 18:05:24;;;;;;;3.28;1.48;;;28.60;42.30;;;;;;4991644;28;20491;-80
